Meteo Giornale » Osservazioni meteo Italia » Bergamo-Orio Al Serio

ore: 11:50 - Osservazioni Meteo Bergamo-Orio Al Serio
Lat. 45° 40' N Lon. 9° 42' E Alt. 238 metri s.l.m.

sereno Europe/Rome

11 °C

Sereno

Temp. 24 Ore

2 °C

13 °C

Sud-Ovest

7.4 Km/h

Dew point -1 °C

Umidità 43 %

Visibilità  10 Km

Il sole sorge alle ore 07:26

Il sole tramonta alle ore 16:47

Data e Ora Cielo e Fenomeni T °C DP °C Um. % Pres. hPa Vis. km Vento km/h
Oggi h: 11:50 sereno Sereno 11 -1 43 1020 10 SO 7.4
Oggi h: 11:20 sereno Sereno 10 -1 46 1020 10 S/SO 7.4
Oggi h: 10:50 sereno Sereno 10 -2 42 1020 10 N 5.5
Oggi h: 10:20 sereno Sereno 9 -2 45 1020 10 N 5.5
Oggi h: 09:50 sereno Sereno 9 -3 42 1020 10 N 1.8
Oggi h: 09:20 sereno Sereno 7 -3 48 1020 10 N/NE 7.4
Oggi h: 08:50 sereno Sereno 6 -3 52 1020 10 N 9.3
Oggi h: 08:20 sereno Sereno 5 -4 52 1020 10 NE 7.4
Oggi h: 07:50 sereno Sereno 4 -4 55 1020 10 N/NE 11.1
Oggi h: 07:20 sereno Sereno 3 -4 59 1019 10 N 13
Oggi h: 06:50 sereno Sereno 3 -4 59 1019 10 N 13
Oggi h: 06:20 sereno Sereno 3 -4 59 1019 10 N 13
Oggi h: 05:50 sereno Sereno 3 -3 64 1019 10 N 9.3
Oggi h: 05:20 sereno Sereno 3 -3 64 1019 10 N 13
Oggi h: 04:50 sereno Sereno 3 -3 64 1019 10 N 1.8
Oggi h: 04:20 sereno Sereno 3 -3 64 1019 10 N 13
Oggi h: 03:50 sereno Sereno 3 -3 64 1019 10 N 14.8
Oggi h: 03:20 sereno Sereno 3 -3 64 1019 10 N 11.1
Oggi h: 02:50 sereno Sereno 3 -3 64 1019 10 N 11.1
Oggi h: 02:20 sereno Sereno 3 -3 64 1019 10 N/NE 13
Oggi h: 01:50 sereno Sereno 2 -3 69 1019 10 N 13
Oggi h: 01:20 sereno Sereno 3 -2 69 1019 10 N 13
Oggi h: 00:50 sereno Sereno 3 -1 74 1019 10 NE 7.4
Oggi h: 00:20 sereno Sereno 4 1 80 1018 10 N 5.5
Ieri h: 23:50 sereno Sereno 5 1 75 1018 10 E/NE 9.3
Ieri h: 23:20 sereno Sereno 6 -1 60 1017 10 N 5.5
Ieri h: 22:50 sereno Sereno 5 -5 48 1017 10 E/SE 7.4
Ieri h: 22:20 sereno Sereno 5 -5 48 1016 10 N 7.4
Ieri h: 21:50 sereno Sereno 5 -4 52 1016 10 N/NE 16.7
Ieri h: 21:20 sereno Sereno 5 -4 52 1015 10 E/NE 11.1
Ieri h: 20:50 sereno Sereno 5 -4 52 1015 10 N/NE 9.3
Ieri h: 20:20 sereno Sereno 6 -5 45 1014 10 N 11.1
Ieri h: 19:50 sereno Sereno 8 -6 36 1014 10 NO 18.5
Ieri h: 19:20 sereno Sereno 9 -6 33 1014 10 N/NO 14.8
Ieri h: 18:50 sereno Sereno 8 -1 52 1013 10 N/NO 7.4
Ieri h: 18:20 sereno Sereno 9 4 70 1013 8 N 0
Ieri h: 17:50 sereno Sereno 7 5 87 1012 8 N 5.5
Ieri h: 17:20 sereno Sereno 8 5 81 1012 8 E/NE 7.4
Ieri h: 16:50 sereno Sereno 9 6 81 1011 9 N 5.5
Ieri h: 16:20 sereno Sereno 10 6 76 1011 9 E/SE 9.3
Ieri h: 15:50 sereno Sereno 11 7 76 1011 9 S 7.4
Ieri h: 15:20 sereno Sereno 12 7 71 1011 9 N 5.5
Ieri h: 14:50 sereno Sereno 13 6 62 1011 10 N 3.7
Ieri h: 14:20 sereno Sereno 12 7 71 1011 10 S 9.3
Ieri h: 13:50 sereno Sereno 13 3 50 1011 10 N 11.1
Ieri h: 13:20 sereno Sereno 12 5 62 1011 10 S/SE 7.4
Ieri h: 12:50 sereno Sereno 12 5 62 1012 10 S 9.3
Ieri h: 12:20 sereno Sereno 12 4 57 1012 10 S 11.1
Ieri h: 11:50 sereno Sereno 12 2 50 1012 10 O/SO 9.3